McHenry, Mississippi
Current Conditions -  °F | °C
As of 5:53 PM on Tuesday 25 Nov 2014 (Local Time) from KGPT Reporting Station
Overcast Overcast  
Wind Chill: 52°   Ceiling: 11000
Heat Index: 52°   Visibility: 10mi
Dew Point: 36°   Wind: 5mph
Humidity: 54%   Direction: 320°NW
Pressure: 30.15"   Gusts: NA
Location:  30.71°N, 89.14°W
Report Text: KGPT 252353Z 32004KT 10SM OVC110 11/02 A3015 RMK AO2 PRESRR SLP210 T01110022 10156 20111 51018 $
Loading
Personal Weather Stations






























Interactive Weather Map New forecast layout! Learn more

10-Day Weather Forecast

Advertisements
Track Severe Weather on mobile